This is the latest recevied weather packets stored in our database for station/object OE5HCE. If no packets are shown the sender has not sent any weather packets the latest 10 day(s).
| Time | Temp. | Humidity | Pressure | Rain* | Wind** | Luminosity | Snow |
|---|---|---|---|---|---|---|---|
| 1777621550 | 10.56° C | 50% | 1031.3 hPa | 0 mm | - | 32 W/m² | - |
| 1777620643 | 10° C | 52% | 1031.4 hPa | 0 mm | - | 58 W/m² | - |
| 1777619739 | 8.89° C | 56% | 1031.3 hPa | 0 mm | - | 397 W/m² | - |
| 1777618835 | 8.33° C | 57% | 1031.3 hPa | 0 mm | - | 439 W/m² | - |
| 1777617931 | 7.22° C | 60% | 1031.3 hPa | 0 mm | - | 401 W/m² | - |
| 1777617030 | 6.67° C | 65% | 1031.3 hPa | 0 mm | - | 366 W/m² | - |
| 1777616120 | 5.56° C | 66% | 1031.2 hPa | 0 mm | - | 323 W/m² | - |
| 1777615217 | 4.44° C | 69% | 1031.2 hPa | 0 mm | - | 281 W/m² | - |
| 1777614312 | 3.89° C | 71% | 1031.1 hPa | 0 mm | - | 243 W/m² | - |
| 1777613408 | 3.33° C | 73% | 1031.1 hPa | 0 mm | - | 202 W/m² | - |
| 1777612507 | 2.22° C | 75% | 1031.2 hPa | 0 mm | - | 153 W/m² | - |
| 1777611658 | 1.67° C | 76% | 1031 hPa | 0 mm | - | 111 W/m² | - |
| 1777610763 | 1.11° C | 76% | 1030.7 hPa | 0 mm | - | 69 W/m² | - |
| 1777609851 | 1.11° C | 76% | 1030.7 hPa | 0 mm | - | 39 W/m² | - |
| 1777608947 | 1.11° C | 76% | 1030.5 hPa | 0 mm | - | 16 W/m² | - |
| 1777608054 | 1.11° C | 75% | 1030.3 hPa | 0 mm | - | 9 W/m² | - |
| 1777607144 | 1.11° C | 75% | 1030.4 hPa | 0 mm | - | 0 W/m² | - |
| 1777606245 | 1.11° C | 75% | 1030.4 hPa | 0 mm | - | 0 W/m² | - |
| 1777605341 | 1.11° C | 75% | 1030.4 hPa | 0 mm | - | 0 W/m² | - |
| 1777604446 | 1.11° C | 75% | 1030.2 hPa | 0 mm | - | 0 W/m² | - |
| 1777603538 | 1.67° C | 74% | 1030.2 hPa | 0 mm | - | 0 W/m² | - |
| 1777602643 | 1.67° C | 74% | 1030.1 hPa | 0 mm | - | 0 W/m² | - |
| 1777601735 | 1.67° C | 73% | 1030.1 hPa | 0 mm | - | 0 W/m² | - |
| 1777600847 | 1.67° C | 73% | 1030 hPa | 0 mm | - | 0 W/m² | - |
| 1777599932 | 1.67° C | 72% | 1030.1 hPa | 0 mm | - | 0 W/m² | - |
* Rain latest hour (hover to see other rain measurements)
** Current wind speed in m/s (hover to see current wind gust speed)